createdAt,value
2018-12-20T06:39:15.214Z,2.20
2018-12-20T06:41:44.102Z,2.30
2018-12-20T06:44:16.046Z,2.30
2018-12-20T06:47:02.202Z,2.30
2018-12-20T06:49:35.310Z,2.30
2018-12-20T06:52:04.195Z,2.30
2018-12-20T06:54:33.038Z,2.30
2018-12-20T06:57:11.426Z,2.30
2018-12-20T06:59:41.122Z,2.30
2018-12-20T07:02:09.919Z,2.30
2018-12-20T07:04:38.717Z,2.20
2018-12-20T07:07:08.511Z,2.20
2018-12-20T07:09:38.330Z,2.20
2018-12-20T07:12:09.087Z,2.20
2018-12-20T07:14:37.926Z,2.20
2018-12-20T07:17:10.330Z,2.20
2018-12-20T07:19:41.031Z,2.20
2018-12-20T07:22:11.819Z,2.20
2018-12-20T07:24:43.639Z,2.20
2018-12-20T07:27:12.438Z,2.20
2018-12-20T07:30:07.763Z,2.20
2018-12-20T07:32:42.471Z,2.20
2018-12-20T07:35:12.187Z,2.20
2018-12-20T07:38:06.223Z,2.20
2018-12-20T07:40:35.059Z,2.20
2018-12-20T07:43:11.342Z,2.30
2018-12-20T07:45:47.123Z,2.30
2018-12-20T07:48:20.199Z,2.30
2018-12-20T07:50:48.983Z,2.30
2018-12-20T07:53:26.254Z,2.30
2018-12-20T07:56:00.447Z,2.40
2018-12-20T07:58:33.335Z,2.40
2018-12-20T08:01:04.227Z,2.50
2018-12-20T08:03:36.747Z,2.50
2018-12-20T08:06:07.619Z,2.60
2018-12-20T08:08:37.372Z,2.60
2018-12-20T08:11:11.667Z,2.60
2018-12-20T08:13:41.393Z,2.60
2018-12-20T08:16:16.127Z,2.70
2018-12-20T08:18:50.735Z,2.70
2018-12-20T08:21:26.147Z,2.80
2018-12-20T08:23:58.247Z,2.90
2018-12-20T08:26:28.131Z,3.00
2018-12-20T08:29:07.679Z,3.10
2018-12-20T08:31:37.447Z,3.20
2018-12-20T08:34:08.211Z,3.30
2018-12-20T08:36:40.992Z,3.40
2018-12-20T08:39:13.639Z,3.50
2018-12-20T08:41:56.772Z,3.60
2018-12-20T08:44:39.375Z,3.70
2018-12-20T08:47:20.538Z,3.80
2018-12-20T08:49:59.137Z,3.90
2018-12-20T08:52:47.151Z,3.90
2018-12-20T08:55:28.447Z,4.00
2018-12-20T08:57:57.247Z,4.00
2018-12-20T09:00:31.979Z,4.00
2018-12-20T09:03:07.711Z,4.00
2018-12-20T09:05:51.087Z,4.00
2018-12-20T09:08:19.971Z,4.00
2018-12-20T09:10:55.657Z,4.10
2018-12-20T09:13:41.815Z,4.20
2018-12-20T09:16:10.642Z,4.30
2018-12-20T09:18:39.476Z,4.40
2018-12-20T09:21:08.311Z,4.40
2018-12-20T09:23:37.099Z,4.50
2018-12-20T09:26:05.930Z,4.70
2018-12-20T09:28:41.563Z,4.90
2018-12-20T09:31:10.364Z,4.80
2018-12-20T09:33:45.042Z,4.70
2018-12-20T09:36:14.799Z,4.60
2018-12-20T09:38:57.076Z,4.60
2018-12-20T09:41:25.925Z,4.60
2018-12-20T09:44:26.816Z,4.60
2018-12-20T09:47:11.645Z,4.50
2018-12-20T09:49:41.922Z,4.50
2018-12-20T09:52:11.680Z,4.50
2018-12-20T09:54:53.064Z,4.60
2018-12-20T09:57:34.748Z,4.70
2018-12-20T10:00:09.743Z,4.80
2018-12-20T10:02:48.312Z,4.80
2018-12-20T10:05:19.041Z,4.80
2018-12-20T10:07:47.864Z,4.80
2018-12-20T10:10:33.168Z,4.80
2018-12-20T10:13:02.036Z,4.80
2018-12-20T10:15:31.764Z,4.80
2018-12-20T10:18:01.584Z,4.80
2018-12-20T10:20:40.495Z,4.80
2018-12-20T10:23:11.198Z,4.80
2018-12-20T10:25:44.270Z,4.80
2018-12-20T10:28:18.896Z,4.90
2018-12-20T10:30:52.568Z,5.00
2018-12-20T10:33:25.304Z,5.10
2018-12-20T10:36:08.808Z,5.20
2018-12-20T10:38:45.608Z,5.20
2018-12-20T10:41:14.434Z,5.30
2018-12-20T10:43:43.302Z,5.40
2018-12-20T10:46:12.140Z,5.50
2018-12-20T10:48:41.012Z,5.60
2018-12-20T10:51:11.748Z,5.60
2018-12-20T10:53:44.976Z,5.70
2018-12-20T10:56:13.785Z,5.80
2018-12-20T10:58:44.521Z,5.90
2018-12-20T11:01:19.648Z,5.90
2018-12-20T11:04:08.005Z,5.90
2018-12-20T11:06:47.259Z,5.90
2018-12-20T11:09:22.552Z,5.90
2018-12-20T11:12:08.886Z,6.00
2018-12-20T11:14:57.835Z,6.10
2018-12-20T11:17:37.349Z,6.20
2018-12-20T11:20:05.343Z,6.30
2018-12-20T11:22:34.222Z,6.30
2018-12-20T11:25:07.740Z,6.40
2018-12-20T11:27:54.576Z,6.50
2018-12-20T11:30:26.876Z,6.70
2018-12-20T11:33:01.448Z,6.80
2018-12-20T11:35:32.180Z,6.90
2018-12-20T11:38:02.000Z,6.90
2018-12-20T11:40:31.808Z,6.70
2018-12-20T11:46:11.888Z,6.60
2018-12-20T11:48:40.692Z,6.40
2018-12-20T11:51:12.528Z,6.30
2018-12-20T11:54:04.491Z,6.20
2018-12-20T11:56:50.560Z,6.20
2018-12-20T11:59:22.601Z,6.20
2018-12-20T12:01:51.696Z,6.20
2018-12-20T12:04:20.665Z,6.40
2018-12-20T12:06:50.361Z,7.00
2018-12-20T12:09:26.408Z,7.70
2018-12-20T12:11:56.285Z,9.50
2018-12-20T12:14:31.688Z,10.60
2018-12-20T12:17:11.319Z,10.60
2018-12-20T12:19:40.172Z,9.70
2018-12-20T12:22:09.032Z,8.80
2018-12-20T12:24:42.596Z,8.10
2018-12-20T12:27:16.452Z,7.50
2018-12-20T12:29:54.908Z,7.20
2018-12-20T12:32:24.652Z,7.00
2018-12-20T12:34:54.503Z,6.80
2018-12-20T12:37:30.095Z,6.80
2018-12-20T12:39:59.884Z,6.80
2018-12-20T12:42:28.669Z,6.90
2018-12-20T12:45:02.659Z,6.90
2018-12-20T12:47:40.656Z,7.10
2018-12-20T12:50:19.508Z,7.20
2018-12-20T12:53:01.087Z,7.20
2018-12-20T12:55:30.776Z,7.20
2018-12-20T12:58:04.569Z,7.00
2018-12-20T13:00:34.716Z,6.80
2018-12-20T13:03:10.197Z,6.70
2018-12-20T13:05:50.636Z,6.50
2018-12-20T13:08:25.800Z,6.30
2018-12-20T13:10:58.385Z,6.10
2018-12-20T13:13:37.396Z,5.90
2018-12-20T13:16:10.424Z,5.80
2018-12-20T13:18:51.666Z,5.70
2018-12-20T13:21:20.520Z,5.60
2018-12-20T13:23:55.277Z,5.50
2018-12-20T13:26:36.040Z,5.40
2018-12-20T13:29:10.080Z,5.30
2018-12-20T13:31:40.040Z,5.20
2018-12-20T13:34:12.373Z,5.10
2018-12-20T13:36:47.848Z,5.10
2018-12-20T13:39:16.676Z,5.10
2018-12-20T13:41:51.196Z,5.20
2018-12-20T13:44:26.825Z,5.20
2018-12-20T13:47:20.265Z,5.20
2018-12-20T13:49:53.799Z,5.20
2018-12-20T13:52:26.448Z,5.20
2018-12-20T13:55:09.418Z,5.10
2018-12-20T13:57:39.264Z,5.10
2018-12-20T14:00:11.704Z,5.00
2018-12-20T14:02:44.104Z,5.00
2018-12-20T14:05:12.928Z,4.90
2018-12-20T14:07:41.792Z,4.90
2018-12-20T14:10:10.732Z,4.90
2018-12-20T14:12:39.561Z,4.90
2018-12-20T14:15:08.612Z,4.80
2018-12-20T14:17:37.508Z,4.80
2018-12-20T14:20:17.564Z,4.80
2018-12-20T14:22:49.740Z,4.80
2018-12-20T14:25:42.932Z,4.90
2018-12-20T14:28:15.068Z,4.80
2018-12-20T14:30:56.750Z,4.80
2018-12-20T14:33:37.721Z,4.80
2018-12-20T14:36:09.869Z,4.80
2018-12-20T14:38:48.713Z,4.80
2018-12-20T14:41:29.448Z,4.70
2018-12-20T14:44:19.064Z,4.60
2018-12-20T14:47:05.382Z,4.50
2018-12-20T14:49:47.664Z,4.40
2018-12-20T14:52:39.736Z,4.40
2018-12-20T14:55:16.292Z,4.40
2018-12-20T14:57:58.944Z,4.30
2018-12-20T15:00:44.474Z,4.30
2018-12-20T15:03:28.600Z,4.30
2018-12-20T15:06:12.424Z,4.20
2018-12-20T15:08:51.772Z,4.20
2018-12-20T15:11:39.942Z,4.20
2018-12-20T15:14:13.676Z,4.20
2018-12-20T15:16:46.252Z,4.20
2018-12-20T15:19:19.508Z,4.20
2018-12-20T15:22:08.691Z,4.20
2018-12-20T15:27:51.076Z,4.20
2018-12-20T15:30:26.992Z,4.20
2018-12-20T15:33:06.756Z,4.20
2018-12-20T15:35:42.652Z,4.20
2018-12-20T15:38:19.232Z,4.20
2018-12-20T15:41:02.124Z,4.20
2018-12-20T15:43:33.100Z,4.20
2018-12-20T15:46:05.789Z,4.20
2018-12-20T15:48:43.092Z,4.20
2018-12-20T15:51:23.872Z,4.20
2018-12-20T15:54:00.429Z,4.20
2018-12-20T15:56:35.391Z,4.20
2018-12-20T15:59:10.072Z,4.20
2018-12-20T16:01:38.892Z,4.20
2018-12-20T16:04:09.676Z,4.20
2018-12-20T16:06:47.428Z,4.20
2018-12-20T16:09:22.087Z,4.20
2018-12-20T16:11:50.920Z,4.20
2018-12-20T16:14:20.932Z,4.20
2018-12-20T16:17:08.724Z,4.20
2018-12-20T16:19:55.676Z,4.20
2018-12-20T16:22:29.848Z,4.20
2018-12-20T16:25:09.499Z,4.20
2018-12-20T16:27:47.191Z,4.20
2018-12-20T16:30:31.240Z,4.20
2018-12-20T16:33:10.356Z,4.20
2018-12-20T16:35:44.825Z,4.20
2018-12-20T16:38:14.600Z,4.20
2018-12-20T16:40:45.328Z,4.20
2018-12-20T16:43:26.820Z,4.20
2018-12-20T16:45:55.732Z,4.20
2018-12-20T16:48:24.676Z,4.20
2018-12-20T16:50:54.381Z,4.20
2018-12-20T16:53:24.204Z,4.20
2018-12-20T16:56:11.227Z,4.30
2018-12-20T16:58:42.113Z,4.30
2018-12-20T17:01:10.913Z,4.30
2018-12-20T17:03:40.668Z,4.20
2018-12-20T17:06:09.484Z,4.20
2018-12-20T17:08:47.799Z,4.10
2018-12-20T17:11:13.528Z,4.10
2018-12-20T17:13:43.272Z,3.90
2018-12-20T17:19:22.282Z,3.80
2018-12-20T17:21:57.904Z,3.70
2018-12-20T17:24:26.703Z,3.70
2018-12-20T17:27:00.721Z,3.70
2018-12-20T17:29:31.571Z,3.70
2018-12-20T17:32:08.861Z,3.70
2018-12-20T17:34:43.712Z,3.70
2018-12-20T17:37:24.368Z,3.70
2018-12-20T17:39:54.124Z,3.60
2018-12-20T17:42:29.544Z,3.60
2018-12-20T17:44:59.249Z,3.60
2018-12-20T17:47:33.192Z,3.50
2018-12-20T17:50:09.504Z,3.50
2018-12-20T17:52:50.068Z,3.50
2018-12-20T17:55:18.880Z,3.50
2018-12-20T17:57:48.683Z,3.50
2018-12-20T18:00:37.580Z,3.50
2018-12-20T18:03:07.384Z,3.50
2018-12-20T18:05:36.180Z,3.60
2018-12-20T18:08:24.080Z,3.60
2018-12-20T18:11:00.964Z,3.60
2018-12-20T18:13:33.941Z,3.60
2018-12-20T18:16:04.700Z,3.60
2018-12-20T18:18:40.328Z,3.70
2018-12-20T18:21:09.125Z,3.70
2018-12-20T18:23:48.420Z,3.70
2018-12-20T18:26:24.373Z,3.80
2018-12-20T18:28:54.053Z,3.80
2018-12-20T18:31:26.312Z,3.90
2018-12-20T18:34:02.548Z,3.90
2018-12-20T18:36:35.476Z,4.00
2018-12-20T18:39:08.412Z,4.00
2018-12-20T18:41:39.140Z,4.00
2018-12-20T18:44:08.860Z,4.10
2018-12-20T18:46:37.676Z,4.10
2018-12-20T18:49:10.084Z,4.20
2018-12-20T18:51:38.976Z,4.20
2018-12-20T18:54:08.740Z,4.30
2018-12-20T18:56:39.452Z,4.30
2018-12-20T18:59:09.149Z,4.30
2018-12-20T19:01:38.877Z,4.30
2018-12-20T19:04:07.704Z,4.30
2018-12-20T19:06:41.909Z,4.30
2018-12-20T19:09:12.702Z,4.30
2018-12-20T19:11:43.528Z,4.40
2018-12-20T19:14:13.224Z,4.40
2018-12-20T19:16:51.581Z,4.30
2018-12-20T19:19:20.468Z,4.30
2018-12-20T19:21:49.352Z,4.30
2018-12-20T19:24:46.508Z,4.20
2018-12-20T19:27:15.300Z,4.20
2018-12-20T19:30:00.592Z,4.20
2018-12-20T19:32:41.533Z,4.10
2018-12-20T19:35:27.069Z,4.10
2018-12-20T19:37:59.344Z,4.00
2018-12-20T19:40:32.002Z,3.90
2018-12-20T19:43:04.500Z,3.90
2018-12-20T19:45:48.652Z,3.80
2018-12-20T19:48:32.129Z,3.80
2018-12-20T19:51:07.430Z,3.70
2018-12-20T19:53:48.469Z,3.60
2018-12-20T19:56:22.941Z,3.50
2018-12-20T19:58:57.729Z,3.40
2018-12-20T20:01:26.667Z,3.50
2018-12-20T20:03:56.485Z,3.60
2018-12-20T20:06:30.597Z,3.60
2018-12-20T20:09:07.053Z,3.60
2018-12-20T20:11:36.889Z,3.60
2018-12-20T20:14:07.650Z,3.60
2018-12-20T20:16:39.749Z,3.50
2018-12-20T20:19:08.650Z,3.50
2018-12-20T20:21:37.478Z,3.60
2018-12-20T20:24:12.249Z,3.60
2018-12-20T20:26:41.058Z,3.60
2018-12-20T20:29:14.959Z,3.60
2018-12-20T20:32:01.919Z,3.60
2018-12-20T20:34:33.525Z,3.50
2018-12-20T20:37:09.750Z,3.40
2018-12-20T20:39:44.257Z,3.30
2018-12-20T20:42:20.386Z,3.30
2018-12-20T20:44:52.478Z,3.20
2018-12-20T20:47:21.558Z,3.20
2018-12-20T20:49:50.326Z,3.10
2018-12-20T20:52:24.738Z,3.00
2018-12-20T20:55:06.967Z,3.00
2018-12-20T20:57:37.714Z,3.10
2018-12-20T21:00:16.698Z,3.10
2018-12-20T21:02:57.378Z,3.20
2018-12-20T21:05:29.538Z,3.30
2018-12-20T21:08:04.282Z,3.30
2018-12-20T21:10:40.570Z,3.40
2018-12-20T21:13:09.378Z,3.50
2018-12-20T21:15:38.266Z,3.50
2018-12-20T21:18:09.098Z,3.60
2018-12-20T21:20:37.918Z,3.60
2018-12-20T21:23:09.470Z,3.60
2018-12-20T21:25:40.254Z,3.60
2018-12-20T21:28:14.862Z,3.60
2018-12-20T21:30:45.562Z,3.60
2018-12-20T21:33:16.334Z,3.50
2018-12-20T21:35:46.123Z,3.50
2018-12-20T21:38:18.709Z,3.50
2018-12-20T21:40:51.274Z,3.40
2018-12-20T21:43:21.116Z,3.40
2018-12-20T21:46:02.394Z,3.40
2018-12-20T21:48:31.243Z,3.50
2018-12-20T21:51:03.046Z,3.40
2018-12-20T21:53:31.842Z,3.20
2018-12-20T21:56:03.442Z,3.20
2018-12-20T21:58:32.346Z,3.30
2018-12-20T22:01:08.498Z,3.40
2018-12-20T22:03:42.398Z,3.40
2018-12-20T22:06:15.226Z,3.40
2018-12-20T22:08:49.826Z,3.40
2018-12-20T22:11:19.691Z,3.40
2018-12-20T22:13:51.046Z,3.40
2018-12-20T22:16:27.134Z,3.50
2018-12-20T22:18:57.966Z,3.50
2018-12-20T22:21:36.822Z,3.60
2018-12-20T22:24:07.558Z,3.50
2018-12-20T22:26:47.718Z,3.50
2018-12-20T22:29:17.478Z,3.50
2018-12-20T22:31:48.358Z,3.60
2018-12-20T22:34:17.143Z,3.60
2018-12-20T22:36:45.926Z,3.70
2018-12-20T22:39:15.707Z,3.70
2018-12-20T22:41:48.205Z,3.70
2018-12-20T22:44:22.814Z,3.80
2018-12-20T22:46:52.678Z,3.80
2018-12-20T22:49:27.854Z,3.80
2018-12-20T22:51:57.578Z,3.80
2018-12-20T22:54:34.466Z,3.90
2018-12-20T22:57:08.826Z,3.80
2018-12-20T22:59:57.975Z,3.80
2018-12-20T23:02:30.846Z,3.70
2018-12-20T23:04:59.642Z,3.50
2018-12-20T23:07:40.926Z,3.50
2018-12-20T23:10:11.766Z,3.40
2018-12-20T23:12:40.596Z,3.40
2018-12-20T23:15:09.491Z,3.30
2018-12-20T23:17:47.202Z,3.20
2018-12-20T23:20:18.018Z,3.10
2018-12-20T23:22:47.694Z,3.00
2018-12-20T23:25:16.514Z,2.90
2018-12-20T23:27:46.229Z,2.80
2018-12-20T23:30:16.950Z,2.70
2018-12-20T23:32:46.773Z,2.50
2018-12-20T23:41:22.691Z,2.30
2018-12-20T23:43:51.482Z,2.20
2018-12-20T23:46:35.966Z,2.00
2018-12-20T23:49:04.782Z,2.00
2018-12-20T23:51:33.611Z,2.00
2018-12-20T23:54:07.462Z,2.00
2018-12-20T23:56:46.051Z,1.90
2018-12-20T23:59:24.898Z,1.90
